Time;durP1;ratioP1;P1;durP2;ratioP2;P2;SDS_P1;SDS_P2;PMS_P1;PMS_P2;Temp;Humidity;BMP_temperature;BMP_pressure;BME280_temperature;BME280_humidity;BME280_pressure;Samples;Min_cycle;Max_cycle;Signal;HPM_P1;HPM_P2
2022/01/26 00:00:54;;;;;;;7.47;4.68;;;;;;;;;;5011808;28;20048;-50
2022/01/26 00:06:12;;;;;;;7.15;4.35;;;;;;;;;;5023343;28;20129;-51
2022/01/26 00:08:37;;;;;;;6.60;4.90;;;;;;;;;;5006105;28;20025;-50
2022/01/26 00:11:02;;;;;;;6.53;4.82;;;;;;;;;;5023755;28;20518;-50
2022/01/26 00:13:27;;;;;;;7.13;4.83;;;;;;;;;;5010212;28;20484;-50
2022/01/26 00:15:54;;;;;;;7.90;5.43;;;;;;;;;;5020831;28;20631;-50
2022/01/26 00:18:21;;;;;;;6.15;4.68;;;;;;;;;;5019321;28;20308;-51
2022/01/26 00:20:57;;;;;;;6.68;4.75;;;;;;;;;;5012120;28;20026;-51
2022/01/26 00:23:49;;;;;;;6.47;4.97;;;;;;;;;;5023263;28;20041;-50
2022/01/26 00:26:15;;;;;;;7.03;4.63;;;;;;;;;;5023073;28;20040;-51
2022/01/26 00:29:10;;;;;;;7.05;4.88;;;;;;;;;;5023338;28;20091;-51
2022/01/26 00:39:52;;;;;;;7.13;4.80;;;;;;;;;;5006783;28;20056;-50
2022/01/26 00:42:18;;;;;;;6.40;4.43;;;;;;;;;;5022856;28;20037;-50
2022/01/26 00:44:46;;;;;;;6.30;4.27;;;;;;;;;;5022892;28;20022;-51
2022/01/26 00:47:12;;;;;;;6.45;4.70;;;;;;;;;;5023006;28;20280;-51
2022/01/26 00:49:37;;;;;;;7.18;4.82;;;;;;;;;;5022788;28;20025;-51
2022/01/26 00:52:06;;;;;;;6.67;4.80;;;;;;;;;;5021069;28;20473;-51
2022/01/26 00:54:31;;;;;;;5.95;4.10;;;;;;;;;;5008790;28;20264;-51
2022/01/26 00:56:56;;;;;;;7.10;4.43;;;;;;;;;;5023119;28;20033;-51
2022/01/26 00:59:21;;;;;;;6.37;4.63;;;;;;;;;;5010115;28;20257;-50
2022/01/26 01:01:47;;;;;;;6.40;4.63;;;;;;;;;;5018823;28;20357;-52
2022/01/26 01:04:12;;;;;;;6.38;4.50;;;;;;;;;;5022309;28;20433;-51
2022/01/26 01:06:46;;;;;;;6.53;4.50;;;;;;;;;;5022288;28;20056;-50
2022/01/26 01:09:11;;;;;;;6.68;4.53;;;;;;;;;;5022520;28;20809;-50
2022/01/26 01:11:37;;;;;;;6.15;4.15;;;;;;;;;;5022480;28;20026;-54
2022/01/26 01:14:02;;;;;;;5.70;4.30;;;;;;;;;;4988113;28;20033;-51
2022/01/26 01:16:28;;;;;;;6.03;4.28;;;;;;;;;;5022522;28;20276;-51
2022/01/26 01:19:02;;;;;;;7.22;4.82;;;;;;;;;;5014100;28;20025;-51
2022/01/26 01:34:02;;;;;;;7.70;4.95;;;;;;;;;;5006054;28;20036;-51
2022/01/26 01:36:27;;;;;;;7.10;5.05;;;;;;;;;;5022146;28;20014;-51
2022/01/26 01:38:54;;;;;;;7.00;4.80;;;;;;;;;;5013984;28;20026;-50
2022/01/26 01:41:20;;;;;;;6.55;4.72;;;;;;;;;;5014104;28;20025;-51
2022/01/26 01:43:45;;;;;;;6.93;4.67;;;;;;;;;;5021919;28;20033;-51
2022/01/26 01:46:10;;;;;;;6.67;4.90;;;;;;;;;;5022103;28;20275;-51
2022/01/26 01:48:35;;;;;;;8.20;5.10;;;;;;;;;;5021943;28;20044;-51
2022/01/26 01:51:04;;;;;;;7.53;5.27;;;;;;;;;;5022117;28;20017;-52
2022/01/26 01:53:41;;;;;;;7.10;4.93;;;;;;;;;;5009087;28;20057;-51
2022/01/26 01:56:07;;;;;;;6.75;4.63;;;;;;;;;;5004221;28;20025;-50
2022/01/26 01:58:32;;;;;;;6.72;4.25;;;;;;;;;;5016793;28;20485;-51
2022/01/26 02:00:57;;;;;;;6.97;4.63;;;;;;;;;;5010838;28;20366;-51
2022/01/26 02:03:23;;;;;;;7.00;5.00;;;;;;;;;;5022620;28;20355;-50
2022/01/26 02:05:48;;;;;;;7.70;5.07;;;;;;;;;;5025626;28;20393;-50
2022/01/26 02:08:14;;;;;;;7.33;5.47;;;;;;;;;;5025561;28;20151;-50
2022/01/26 02:10:39;;;;;;;8.70;5.63;;;;;;;;;;5025473;28;20136;-51
2022/01/26 02:13:12;;;;;;;6.32;4.60;;;;;;;;;;5016092;28;20423;-50
2022/01/26 02:15:48;;;;;;;7.60;5.15;;;;;;;;;;5020195;28;20116;-51
2022/01/26 02:18:31;;;;;;;7.47;5.15;;;;;;;;;;5023062;28;21410;-51
2022/01/26 02:56:11;;;;;;;9.82;6.00;;;;;;;;;;5022930;28;20186;-50
2022/01/26 03:03:37;;;;;;;11.23;6.95;;;;;;;;;;5006445;28;20107;-53
2022/01/26 03:06:09;;;;;;;9.57;6.43;;;;;;;;;;5005548;28;21153;-53
2022/01/26 03:08:39;;;;;;;9.30;6.60;;;;;;;;;;5005555;28;20096;-53
2022/01/26 03:11:10;;;;;;;;;;;;;;;;;;5005594;28;20486;-53
2022/01/26 03:13:39;;;;;;;10.43;6.25;;;;;;;;;;5005121;28;19917;-53
2022/01/26 03:16:11;;;;;;;9.52;6.13;;;;;;;;;;5020789;28;20036;-52
2022/01/26 03:21:08;;;;;;;9.20;6.50;;;;;;;;;;5014113;28;20064;-53
2022/01/26 03:36:27;;;;;;;9.47;6.27;;;;;;;;;;5024490;28;20035;-53
2022/01/26 03:39:00;;;;;;;9.52;6.25;;;;;;;;;;5016617;28;20301;-53
2022/01/26 03:43:57;;;;;;;9.13;6.80;;;;;;;;;;5007445;28;20045;-53
2022/01/26 03:46:23;;;;;;;9.60;6.57;;;;;;;;;;5007340;28;20026;-53
2022/01/26 03:48:48;;;;;;;10.88;6.80;;;;;;;;;;5007033;28;20346;-52
2022/01/26 03:51:13;;;;;;;10.60;6.80;;;;;;;;;;5004471;28;20346;-53
2022/01/26 03:53:38;;;;;;;9.90;6.57;;;;;;;;;;5003290;28;20488;-53
2022/01/26 03:56:04;;;;;;;10.53;7.43;;;;;;;;;;5007614;28;21032;-53
2022/01/26 03:58:29;;;;;;;9.05;6.50;;;;;;;;;;5008303;28;20529;-52
2022/01/26 04:00:54;;;;;;;9.63;6.50;;;;;;;;;;5002954;28;20895;-53
2022/01/26 04:03:19;;;;;;;9.95;6.80;;;;;;;;;;5005917;28;20670;-53
2022/01/26 04:05:45;;;;;;;10.90;6.53;;;;;;;;;;5005894;28;20037;-52
2022/01/26 04:08:17;;;;;;;9.90;6.73;;;;;;;;;;5007965;28;20522;-52
2022/01/26 04:13:16;;;;;;;12.15;7.15;;;;;;;;;;5002632;28;20033;-52
2022/01/26 04:15:41;;;;;;;9.27;6.60;;;;;;;;;;5006202;28;20527;-53
2022/01/26 04:18:11;;;;;;;9.67;6.53;;;;;;;;;;5006586;28;20264;-53
2022/01/26 04:20:40;;;;;;;11.43;7.07;;;;;;;;;;5007011;28;20299;-53
2022/01/26 04:26:00;;;;;;;11.18;7.05;;;;;;;;;;4947084;28;20215;-52
2022/01/26 04:28:32;;;;;;;10.98;7.32;;;;;;;;;;5010258;28;20475;-52
2022/01/26 04:30:57;;;;;;;10.02;7.05;;;;;;;;;;5010487;28;20519;-52
2022/01/26 04:33:23;;;;;;;10.23;6.68;;;;;;;;;;5003860;28;20054;-52
2022/01/26 04:35:48;;;;;;;10.00;7.13;;;;;;;;;;5006701;28;20021;-52
2022/01/26 04:38:22;;;;;;;11.55;7.03;;;;;;;;;;5006385;28;20049;-52
2022/01/26 04:43:49;;;;;;;10.75;6.32;;;;;;;;;;4968371;28;20037;-53
2022/01/26 04:46:14;;;;;;;9.88;7.18;;;;;;;;;;5007997;28;20488;-52
2022/01/26 04:48:39;;;;;;;10.32;6.88;;;;;;;;;;5006418;28;20024;-52
2022/01/26 04:51:04;;;;;;;9.10;6.60;;;;;;;;;;5005258;28;20030;-52
2022/01/26 04:53:30;;;;;;;9.33;6.60;;;;;;;;;;5002363;28;20848;-52
2022/01/26 04:55:55;;;;;;;10.20;7.23;;;;;;;;;;5005369;28;20029;-52
2022/01/26 04:58:20;;;;;;;10.20;6.50;;;;;;;;;;5004732;28;20414;-53
2022/01/26 05:00:45;;;;;;;9.23;6.50;;;;;;;;;;5005013;28;20053;-52
2022/01/26 05:03:11;;;;;;;10.07;6.80;;;;;;;;;;5005135;28;20670;-53
2022/01/26 05:05:36;;;;;;;9.30;6.93;;;;;;;;;;5004925;28;20297;-52
2022/01/26 05:08:01;;;;;;;9.73;6.17;;;;;;;;;;5005411;28;20272;-53
2022/01/26 05:10:28;;;;;;;10.20;6.60;;;;;;;;;;5007918;28;20256;-52
2022/01/26 05:12:53;;;;;;;10.52;6.90;;;;;;;;;;5002185;28;20048;-53
2022/01/26 05:15:21;;;;;;;9.63;6.53;;;;;;;;;;5005195;28;20405;-52
2022/01/26 05:17:47;;;;;;;9.15;6.60;;;;;;;;;;5004872;28;20264;-53
2022/01/26 05:20:13;;;;;;;9.68;6.50;;;;;;;;;;5003619;28;20026;-53
2022/01/26 05:22:40;;;;;;;8.85;6.68;;;;;;;;;;5006313;28;20122;-52
2022/01/26 05:25:05;;;;;;;9.18;6.35;;;;;;;;;;5005057;28;20018;-52
2022/01/26 05:27:30;;;;;;;9.73;6.43;;;;;;;;;;5004801;28;20055;-53
2022/01/26 05:29:56;;;;;;;8.30;6.50;;;;;;;;;;5004665;28;20022;-53
2022/01/26 05:32:21;;;;;;;8.77;6.37;;;;;;;;;;5004605;28;20908;-53
2022/01/26 05:34:46;;;;;;;9.15;6.05;;;;;;;;;;5007782;28;20248;-53
2022/01/26 05:37:11;;;;;;;9.37;5.97;;;;;;;;;;5022360;28;20032;-53
2022/01/26 05:39:38;;;;;;;8.23;5.93;;;;;;;;;;5008068;28;20281;-53
2022/01/26 05:42:05;;;;;;;8.43;6.35;;;;;;;;;;5006796;28;20312;-52
2022/01/26 05:44:30;;;;;;;8.50;6.20;;;;;;;;;;5007148;28;20025;-52
2022/01/26 05:46:55;;;;;;;9.57;6.30;;;;;;;;;;5004665;28;20385;-53
2022/01/26 05:49:20;;;;;;;9.10;5.93;;;;;;;;;;5004593;28;20413;-54
2022/01/26 05:51:46;;;;;;;9.67;6.10;;;;;;;;;;5004429;28;20476;-53
2022/01/26 05:54:12;;;;;;;9.05;6.38;;;;;;;;;;5001815;28;20650;-53
2022/01/26 05:56:37;;;;;;;8.57;5.88;;;;;;;;;;5005134;28;20289;-54
2022/01/26 05:59:02;;;;;;;7.83;5.70;;;;;;;;;;5001347;28;21975;-52
2022/01/26 06:01:27;;;;;;;7.93;5.53;;;;;;;;;;5004235;28;20952;-54
2022/01/26 06:03:53;;;;;;;7.50;5.77;;;;;;;;;;5016285;28;20326;-52
2022/01/26 06:06:18;;;;;;;7.43;5.43;;;;;;;;;;5008873;28;20499;-55
2022/01/26 06:08:43;;;;;;;7.93;5.43;;;;;;;;;;5005398;28;20029;-52
2022/01/26 06:11:08;;;;;;;8.27;6.00;;;;;;;;;;5010346;28;20774;-53
2022/01/26 06:13:34;;;;;;;8.30;5.78;;;;;;;;;;5008912;28;20277;-53
2022/01/26 06:15:59;;;;;;;8.03;5.13;;;;;;;;;;5017943;28;20144;-53
2022/01/26 06:18:24;;;;;;;9.02;5.88;;;;;;;;;;5007529;28;20775;-53
2022/01/26 06:20:49;;;;;;;7.63;5.30;;;;;;;;;;5008388;28;20155;-53
2022/01/26 06:23:15;;;;;;;7.47;4.95;;;;;;;;;;5005627;28;20299;-57
2022/01/26 06:25:40;;;;;;;8.55;5.28;;;;;;;;;;5003030;28;20158;-51
2022/01/26 06:28:09;;;;;;;8.00;5.20;;;;;;;;;;5014974;28;20480;-57
2022/01/26 06:30:34;;;;;;;8.20;4.93;;;;;;;;;;5003964;28;20408;-53
2022/01/26 06:33:00;;;;;;;7.90;5.60;;;;;;;;;;4991109;28;20022;-53
2022/01/26 06:35:26;;;;;;;7.25;5.10;;;;;;;;;;5003013;28;20105;-54
2022/01/26 06:37:51;;;;;;;8.05;5.15;;;;;;;;;;5013279;28;20038;-52
2022/01/26 06:40:16;;;;;;;7.47;5.07;;;;;;;;;;5002555;28;20551;-51
2022/01/26 06:42:52;;;;;;;7.57;4.70;;;;;;;;;;5021651;28;20762;-55
2022/01/26 06:45:20;;;;;;;7.45;4.88;;;;;;;;;;5003149;28;20481;-52
2022/01/26 06:50:11;;;;;;;7.60;5.03;;;;;;;;;;5015931;28;20022;-53
2022/01/26 06:52:36;;;;;;;7.43;4.97;;;;;;;;;;5005355;28;20361;-53
2022/01/26 06:55:04;;;;;;;7.50;5.13;;;;;;;;;;5013393;28;20300;-53
2022/01/26 06:57:29;;;;;;;7.25;4.97;;;;;;;;;;5013879;28;20034;-54
2022/01/26 06:59:54;;;;;;;6.80;4.70;;;;;;;;;;5020241;28;20112;-53
2022/01/26 07:02:19;;;;;;;7.00;4.80;;;;;;;;;;5024958;28;20172;-53
2022/01/26 07:04:45;;;;;;;8.53;5.07;;;;;;;;;;5022213;28;20059;-53
2022/01/26 07:07:10;;;;;;;6.50;4.55;;;;;;;;;;5009544;28;20376;-54
2022/01/26 07:09:35;;;;;;;6.97;4.90;;;;;;;;;;5011186;28;20510;-54
2022/01/26 07:12:00;;;;;;;6.75;4.72;;;;;;;;;;5005224;28;20060;-53
2022/01/26 07:20:31;;;;;;;6.50;5.15;;;;;;;;;;5008789;28;20030;-55
2022/01/26 07:22:40;;;;;;;7.18;5.40;;;;;;;;;;5013616;28;20056;-54
2022/01/26 07:25:05;;;;;;;5.93;4.70;;;;;;;;;;5018368;28;20022;-54
2022/01/26 07:27:31;;;;;;;6.25;4.78;;;;;;;;;;5005012;28;20281;-54
2022/01/26 07:29:57;;;;;;;7.10;4.93;;;;;;;;;;5012325;28;20021;-55
2022/01/26 07:32:24;;;;;;;6.97;5.28;;;;;;;;;;5003853;28;20033;-55
2022/01/26 07:34:49;;;;;;;6.90;5.00;;;;;;;;;;5006706;28;20033;-56
2022/01/26 07:37:16;;;;;;;7.53;4.97;;;;;;;;;;5006935;28;20377;-56
2022/01/26 07:39:45;;;;;;;7.80;5.22;;;;;;;;;;5005501;28;20451;-55
2022/01/26 07:42:10;;;;;;;7.15;4.93;;;;;;;;;;5005447;28;20070;-55
2022/01/26 07:44:35;;;;;;;7.63;4.78;;;;;;;;;;5006614;28;20046;-55
2022/01/26 07:47:01;;;;;;;7.33;5.07;;;;;;;;;;4989700;28;20129;-54
2022/01/26 07:49:26;;;;;;;6.20;4.80;;;;;;;;;;5006380;28;21135;-54
2022/01/26 07:51:51;;;;;;;6.63;4.95;;;;;;;;;;5003248;28;20272;-55
2022/01/26 07:54:18;;;;;;;8.43;5.87;;;;;;;;;;5004867;28;20014;-54
2022/01/26 07:56:44;;;;;;;6.70;5.30;;;;;;;;;;5012068;28;20265;-53
2022/01/26 07:59:09;;;;;;;6.47;5.13;;;;;;;;;;5003544;28;20034;-53
2022/01/26 08:01:35;;;;;;;7.10;5.10;;;;;;;;;;5003679;28;20392;-53
2022/01/26 08:04:01;;;;;;;6.22;4.90;;;;;;;;;;5003502;28;20496;-54
2022/01/26 08:06:26;;;;;;;6.30;4.90;;;;;;;;;;5014727;28;20129;-54
2022/01/26 08:08:51;;;;;;;6.73;5.03;;;;;;;;;;5006011;28;20735;-54
2022/01/26 08:11:16;;;;;;;6.22;4.97;;;;;;;;;;5013222;28;20583;-53
2022/01/26 08:13:41;;;;;;;8.13;5.17;;;;;;;;;;5010672;28;20076;-52
2022/01/26 08:16:07;;;;;;;6.97;5.03;;;;;;;;;;4986165;28;20034;-55
2022/01/26 08:18:32;;;;;;;7.10;5.00;;;;;;;;;;5020647;28;20025;-54
2022/01/26 08:21:04;;;;;;;7.10;4.90;;;;;;;;;;5011303;28;20029;-53
2022/01/26 08:23:29;;;;;;;6.47;5.13;;;;;;;;;;5016396;28;20335;-52
2022/01/26 08:25:54;;;;;;;7.10;5.13;;;;;;;;;;5018346;28;20099;-53
2022/01/26 08:28:26;;;;;;;7.07;5.00;;;;;;;;;;5023491;28;20017;-52
2022/01/26 08:30:51;;;;;;;6.70;4.70;;;;;;;;;;5023577;28;20264;-53
2022/01/26 08:33:16;;;;;;;7.15;4.90;;;;;;;;;;5013919;28;20091;-53
2022/01/26 08:35:42;;;;;;;7.40;4.97;;;;;;;;;;5016764;28;20017;-52
2022/01/26 08:38:07;;;;;;;7.10;5.20;;;;;;;;;;5010446;28;20026;-52
2022/01/26 08:40:33;;;;;;;6.88;5.10;;;;;;;;;;5003145;28;20017;-53
2022/01/26 08:42:58;;;;;;;6.30;4.63;;;;;;;;;;5007647;28;20045;-53
2022/01/26 08:45:24;;;;;;;6.53;4.90;;;;;;;;;;5006271;28;20045;-53
2022/01/26 08:47:49;;;;;;;7.35;4.97;;;;;;;;;;5006097;28;20779;-53
2022/01/26 08:50:15;;;;;;;7.27;5.40;;;;;;;;;;5005637;28;20385;-53
2022/01/26 08:52:40;;;;;;;7.15;5.05;;;;;;;;;;5004357;28;20033;-53
2022/01/26 08:55:06;;;;;;;7.27;4.97;;;;;;;;;;5005157;28;20091;-53
2022/01/26 08:57:31;;;;;;;7.07;4.97;;;;;;;;;;5007909;28;20021;-53
2022/01/26 08:59:58;;;;;;;6.77;5.43;;;;;;;;;;5002355;28;20498;-52
2022/01/26 09:02:24;;;;;;;7.93;4.90;;;;;;;;;;5010366;28;20324;-52
2022/01/26 09:04:49;;;;;;;6.03;4.97;;;;;;;;;;5003907;28;20135;-53
2022/01/26 09:07:15;;;;;;;8.03;4.93;;;;;;;;;;5005273;28;20049;-51
2022/01/26 09:09:43;;;;;;;6.07;4.97;;;;;;;;;;5004631;28;20261;-52
2022/01/26 09:12:09;;;;;;;7.15;5.03;;;;;;;;;;5002082;28;20021;-52
2022/01/26 09:14:35;;;;;;;6.13;4.43;;;;;;;;;;5004439;28;20036;-54
2022/01/26 09:17:02;;;;;;;7.57;5.35;;;;;;;;;;5006919;28;20487;-53
2022/01/26 09:19:29;;;;;;;7.07;5.10;;;;;;;;;;5002495;28;20026;-54
2022/01/26 09:21:58;;;;;;;6.63;4.88;;;;;;;;;;5015731;28;20114;-54
2022/01/26 09:24:25;;;;;;;5.85;4.57;;;;;;;;;;5021568;28;20113;-53
2022/01/26 09:26:50;;;;;;;7.13;4.80;;;;;;;;;;5012417;28;20065;-53
2022/01/26 09:29:15;;;;;;;7.63;5.30;;;;;;;;;;5001796;28;20049;-54
2022/01/26 09:31:42;;;;;;;6.97;4.90;;;;;;;;;;5001613;28;20053;-53
2022/01/26 09:34:07;;;;;;;6.93;4.78;;;;;;;;;;5000221;28;20013;-53
2022/01/26 09:36:32;;;;;;;6.78;4.68;;;;;;;;;;5005795;28;20026;-52
2022/01/26 09:38:58;;;;;;;5.90;4.25;;;;;;;;;;5012943;28;20672;-53
2022/01/26 09:41:25;;;;;;;6.40;4.75;;;;;;;;;;5004365;28;20026;-53
2022/01/26 09:43:50;;;;;;;8.13;5.15;;;;;;;;;;4996872;28;20042;-53
2022/01/26 09:46:15;;;;;;;7.10;4.83;;;;;;;;;;5004280;28;20023;-53
2022/01/26 09:48:42;;;;;;;6.53;4.37;;;;;;;;;;5008947;28;20033;-53
2022/01/26 09:51:10;;;;;;;6.25;4.60;;;;;;;;;;5006595;28;20264;-53
2022/01/26 09:53:36;;;;;;;6.82;4.72;;;;;;;;;;5009132;28;20600;-53
2022/01/26 09:56:01;;;;;;;5.75;4.47;;;;;;;;;;5010160;28;20022;-53
2022/01/26 09:58:27;;;;;;;6.27;4.10;;;;;;;;;;5003426;28;20022;-53
2022/01/26 10:00:59;;;;;;;6.47;4.78;;;;;;;;;;5001889;28;20026;-52
2022/01/26 10:03:30;;;;;;;6.90;5.22;;;;;;;;;;5003870;28;20052;-53
2022/01/26 10:05:56;;;;;;;9.35;5.70;;;;;;;;;;5003012;28;20042;-53
2022/01/26 10:17:07;;;;;;;6.28;4.55;;;;;;;;;;5006803;28;20052;-54
2022/01/26 10:19:17;;;;;;;6.97;4.63;;;;;;;;;;5003530;28;20065;-53
2022/01/26 10:21:46;;;;;;;6.25;4.63;;;;;;;;;;5015520;28;20119;-53
2022/01/26 10:24:11;;;;;;;6.13;4.38;;;;;;;;;;5008956;28;20026;-56
2022/01/26 10:26:36;;;;;;;6.55;4.50;;;;;;;;;;5024285;28;20025;-55
2022/01/26 10:29:02;;;;;;;7.13;4.80;;;;;;;;;;5013132;28;20036;-56
2022/01/26 10:31:28;;;;;;;7.13;5.25;;;;;;;;;;5016772;28;20033;-54
2022/01/26 10:33:54;;;;;;;5.95;4.18;;;;;;;;;;5023263;28;20180;-53
2022/01/26 10:36:20;;;;;;;6.28;4.60;;;;;;;;;;5018436;28;20025;-54
2022/01/26 10:38:55;;;;;;;5.82;4.32;;;;;;;;;;5008254;28;20032;-52
2022/01/26 10:41:20;;;;;;;5.95;4.38;;;;;;;;;;5007174;28;20107;-53
2022/01/26 10:43:49;;;;;;;6.20;4.20;;;;;;;;;;5006822;28;20065;-54
2022/01/26 10:46:24;;;;;;;7.53;4.20;;;;;;;;;;5006773;28;20040;-51
2022/01/26 10:49:07;;;;;;;5.75;4.47;;;;;;;;;;5022924;28;20158;-54
2022/01/26 10:51:53;;;;;;;5.90;4.20;;;;;;;;;;4993427;28;20048;-52
2022/01/26 10:54:27;;;;;;;6.90;4.57;;;;;;;;;;5020365;28;20026;-53
2022/01/26 10:56:52;;;;;;;7.18;4.72;;;;;;;;;;5025954;28;20034;-53
2022/01/26 10:59:18;;;;;;;6.10;4.53;;;;;;;;;;5025104;28;20025;-52
2022/01/26 11:01:43;;;;;;;7.00;4.68;;;;;;;;;;5025616;28;20037;-52
2022/01/26 11:04:09;;;;;;;6.78;4.60;;;;;;;;;;5026057;28;20124;-51
2022/01/26 11:06:34;;;;;;;8.40;4.32;;;;;;;;;;5024940;28;20037;-55
2022/01/26 11:09:11;;;;;;;7.35;4.55;;;;;;;;;;5011601;28;20021;-52
2022/01/26 11:11:39;;;;;;;6.65;4.55;;;;;;;;;;5009279;28;20033;-53
2022/01/26 11:14:21;;;;;;;6.75;4.38;;;;;;;;;;5025486;28;20041;-54
2022/01/26 11:16:47;;;;;;;6.38;4.50;;;;;;;;;;5025530;28;20032;-53
2022/01/26 11:19:13;;;;;;;6.22;4.53;;;;;;;;;;5024737;28;20507;-53
2022/01/26 11:21:39;;;;;;;5.95;4.22;;;;;;;;;;5024679;28;20499;-55
2022/01/26 11:24:21;;;;;;;5.78;4.38;;;;;;;;;;5025574;28;20040;-53
2022/01/26 11:26:47;;;;;;;6.53;4.45;;;;;;;;;;5016277;28;20029;-54
2022/01/26 11:29:14;;;;;;;6.43;4.72;;;;;;;;;;5013328;28;20029;-54
2022/01/26 11:31:40;;;;;;;5.55;4.07;;;;;;;;;;5009194;28;20022;-53
2022/01/26 11:34:05;;;;;;;6.03;4.15;;;;;;;;;;5014337;28;20024;-52
2022/01/26 11:36:31;;;;;;;6.88;4.40;;;;;;;;;;5014482;28;20021;-53
2022/01/26 11:46:54;;;;;;;5.63;4.07;;;;;;;;;;5015413;28;20091;-55
2022/01/26 11:49:23;;;;;;;5.38;4.20;;;;;;;;;;5014298;28;20025;-57
2022/01/26 11:51:49;;;;;;;5.75;4.07;;;;;;;;;;4993980;28;20492;-55
2022/01/26 11:54:16;;;;;;;5.53;4.00;;;;;;;;;;5014173;28;20037;-53
2022/01/26 11:56:52;;;;;;;6.22;4.18;;;;;;;;;;5014793;28;20021;-56
2022/01/26 11:59:18;;;;;;;5.63;4.03;;;;;;;;;;5014550;28;20022;-58
2022/01/26 12:01:49;;;;;;;6.80;4.25;;;;;;;;;;5011124;28;20040;-56
2022/01/26 12:04:17;;;;;;;5.68;4.10;;;;;;;;;;5009853;28;20026;-58
2022/01/26 12:06:49;;;;;;;5.60;4.10;;;;;;;;;;5004183;28;20124;-55
2022/01/26 12:09:14;;;;;;;5.95;3.97;;;;;;;;;;5005153;28;20024;-56
2022/01/26 12:11:40;;;;;;;5.63;4.20;;;;;;;;;;5005043;28;20006;-56
2022/01/26 12:14:06;;;;;;;6.20;4.55;;;;;;;;;;5004309;28;20481;-56
2022/01/26 12:16:43;;;;;;;6.05;3.92;;;;;;;;;;5004874;28;20144;-56
2022/01/26 12:35:22;;;;;;;5.53;4.05;;;;;;;;;;5010112;28;20022;-57
2022/01/26 12:38:02;;;;;;;5.47;4.10;;;;;;;;;;5015437;28;20033;-55
2022/01/26 12:43:18;;;;;;;5.28;3.75;;;;;;;;;;5012912;28;20100;-57
2022/01/26 12:45:44;;;;;;;4.72;3.90;;;;;;;;;;5007113;28;20459;-55
2022/01/26 12:48:09;;;;;;;6.70;4.45;;;;;;;;;;5009713;28;20033;-57
2022/01/26 12:50:35;;;;;;;5.88;4.10;;;;;;;;;;5007871;28;20025;-54
2022/01/26 12:53:01;;;;;;;5.95;4.18;;;;;;;;;;5002262;28;20025;-54
2022/01/26 12:55:30;;;;;;;5.38;3.67;;;;;;;;;;4991920;28;20026;-54
2022/01/26 12:57:56;;;;;;;4.70;3.50;;;;;;;;;;5008885;28;20021;-55
2022/01/26 13:00:23;;;;;;;5.15;3.80;;;;;;;;;;5004502;28;20029;-54
2022/01/26 13:02:49;;;;;;;5.10;3.75;;;;;;;;;;4990332;28;20120;-55
2022/01/26 13:05:15;;;;;;;5.53;4.27;;;;;;;;;;5007877;28;20140;-55
2022/01/26 13:07:41;;;;;;;5.07;3.80;;;;;;;;;;5012460;28;20280;-55
2022/01/26 13:10:13;;;;;;;5.95;4.40;;;;;;;;;;5010386;28;20036;-55
2022/01/26 13:12:38;;;;;;;5.95;4.18;;;;;;;;;;4990147;28;20036;-54
2022/01/26 13:15:15;;;;;;;5.80;4.30;;;;;;;;;;5024844;28;20021;-59
2022/01/26 13:17:47;;;;;;;6.32;3.72;;;;;;;;;;5016428;28;20116;-57
2022/01/26 13:20:33;;;;;;;4.93;3.63;;;;;;;;;;5024974;28;20018;-54
2022/01/26 13:44:50;;;;;;;5.95;4.03;;;;;;;;;;5004717;28;20104;-56
2022/01/26 14:00:07;;;;;;;6.10;4.07;;;;;;;;;;5022757;28;20068;-57
2022/01/26 14:02:34;;;;;;;7.45;4.38;;;;;;;;;;5008482;28;20037;-55
2022/01/26 14:05:00;;;;;;;6.55;4.80;;;;;;;;;;5015354;28;20323;-54
2022/01/26 14:07:25;;;;;;;6.17;4.70;;;;;;;;;;5023315;28;20056;-57
2022/01/26 14:09:50;;;;;;;5.33;4.10;;;;;;;;;;5006919;28;20646;-65
2022/01/26 14:12:20;;;;;;;6.67;4.07;;;;;;;;;;5004813;28;20376;-56
2022/01/26 14:14:51;;;;;;;;;;;;;;;;;;5005999;28;20276;-56
2022/01/26 14:17:26;;;;;;;5.80;4.13;;;;;;;;;;5009248;28;20606;-54
2022/01/26 14:23:13;;;;;;;5.75;3.83;;;;;;;;;;5003888;28;20557;-53
2022/01/26 14:27:52;;;;;;;6.53;4.22;;;;;;;;;;5008619;28;20093;-54
2022/01/26 14:33:13;;;;;;;5.38;3.55;;;;;;;;;;5013352;28;20943;-56
2022/01/26 15:11:12;;;;;;;5.80;3.78;;;;;;;;;;5010308;28;20655;-56
2022/01/26 15:58:16;;;;;;;4.28;3.25;;;;;;;;;;5011513;28;20113;-56
2022/01/26 16:16:48;;;;;;;5.40;3.22;;;;;;;;;;5010106;28;20095;-57
2022/01/26 16:35:30;;;;;;;4.35;3.20;;;;;;;;;;5006755;28;20064;-55
2022/01/26 17:24:48;;;;;;;7.13;3.85;;;;;;;;;;5006506;28;20087;-52
2022/01/26 18:13:01;;;;;;;5.55;3.60;;;;;;;;;;5004825;28;20053;-53
2022/01/26 18:15:38;;;;;;;5.20;4.10;;;;;;;;;;5013248;28;20024;-54
2022/01/26 18:50:00;;;;;;;5.60;4.18;;;;;;;;;;5033750;28;20023;-52
2022/01/26 18:52:25;;;;;;;6.38;3.92;;;;;;;;;;5045876;28;20025;-52
2022/01/26 18:54:50;;;;;;;5.17;3.93;;;;;;;;;;5030722;28;20099;-52
2022/01/26 18:57:16;;;;;;;6.10;4.20;;;;;;;;;;5008781;28;20335;-52
2022/01/26 18:59:41;;;;;;;5.80;3.97;;;;;;;;;;5011426;28;20025;-52
2022/01/26 19:02:07;;;;;;;5.28;3.80;;;;;;;;;;5018499;28;20026;-51
2022/01/26 19:04:44;;;;;;;6.47;4.20;;;;;;;;;;5017516;28;20140;-52
2022/01/26 19:07:09;;;;;;;6.30;4.40;;;;;;;;;;5025546;28;20046;-51
2022/01/26 19:09:39;;;;;;;5.38;3.95;;;;;;;;;;5026019;28;20124;-50
2022/01/26 19:12:07;;;;;;;5.57;3.90;;;;;;;;;;5026167;28;20164;-52
2022/01/26 19:14:36;;;;;;;6.07;4.18;;;;;;;;;;5025288;28;20029;-53
2022/01/26 19:17:50;;;;;;;6.47;4.23;;;;;;;;;;5010803;28;20547;-53
2022/01/26 19:23:08;;;;;;;5.72;4.43;;;;;;;;;;5015841;28;20042;-52
2022/01/26 19:25:23;;;;;;;6.05;3.65;;;;;;;;;;5023698;28;20056;-52
2022/01/26 19:51:17;;;;;;;5.72;3.85;;;;;;;;;;5045669;28;20036;-54
2022/01/26 19:53:42;;;;;;;5.65;3.83;;;;;;;;;;5044645;28;20025;-53
2022/01/26 19:56:07;;;;;;;7.07;4.40;;;;;;;;;;5033501;28;20029;-54
2022/01/26 19:58:33;;;;;;;6.45;4.90;;;;;;;;;;5034557;28;20782;-53
2022/01/26 20:00:58;;;;;;;5.55;4.10;;;;;;;;;;5032825;28;20494;-53
2022/01/26 20:03:23;;;;;;;5.47;4.10;;;;;;;;;;5008036;28;20383;-53
2022/01/26 20:05:51;;;;;;;5.50;4.07;;;;;;;;;;5028814;28;20499;-52
2022/01/26 20:10:51;;;;;;;6.13;4.85;;;;;;;;;;5046037;28;20035;-52
2022/01/26 20:13:24;;;;;;;5.43;4.45;;;;;;;;;;5046371;28;20112;-52
2022/01/26 20:15:50;;;;;;;5.78;4.30;;;;;;;;;;5046632;28;20036;-54
2022/01/26 20:18:15;;;;;;;6.17;4.67;;;;;;;;;;5032417;28;20026;-52
2022/01/26 20:20:40;;;;;;;6.15;4.30;;;;;;;;;;5016707;28;20793;-53
2022/01/26 20:23:08;;;;;;;5.97;4.03;;;;;;;;;;5009940;28;20052;-54
2022/01/26 20:25:33;;;;;;;6.47;4.82;;;;;;;;;;5022824;28;20030;-53
2022/01/26 20:28:05;;;;;;;6.03;4.63;;;;;;;;;;5026472;28;20098;-54
2022/01/26 20:30:33;;;;;;;7.20;4.97;;;;;;;;;;5043609;28;20354;-51
2022/01/26 20:32:58;;;;;;;6.35;4.40;;;;;;;;;;5043907;28;20471;-52
2022/01/26 20:35:23;;;;;;;5.77;4.37;;;;;;;;;;5045396;28;20036;-53
2022/01/26 20:37:48;;;;;;;5.07;3.83;;;;;;;;;;5043619;28;20275;-53
2022/01/26 20:40:15;;;;;;;5.50;4.07;;;;;;;;;;5035307;28;20342;-53
2022/01/26 20:42:40;;;;;;;6.43;4.32;;;;;;;;;;5020011;28;20042;-56
2022/01/26 20:45:06;;;;;;;5.90;4.40;;;;;;;;;;5028060;28;20023;-53
2022/01/26 20:47:32;;;;;;;6.35;4.72;;;;;;;;;;5041961;28;20082;-52
2022/01/26 20:49:57;;;;;;;5.75;4.32;;;;;;;;;;5046147;28;20421;-52
2022/01/26 20:52:22;;;;;;;6.40;4.67;;;;;;;;;;5044264;28;20111;-56
2022/01/26 20:54:47;;;;;;;5.85;4.38;;;;;;;;;;5036918;28;20080;-52
2022/01/26 20:57:13;;;;;;;6.10;4.53;;;;;;;;;;5043971;28;20482;-53
2022/01/26 20:59:38;;;;;;;6.57;4.60;;;;;;;;;;5041925;28;20055;-52
2022/01/26 21:02:05;;;;;;;5.80;4.10;;;;;;;;;;5019494;28;20022;-52
2022/01/26 21:04:30;;;;;;;6.70;4.25;;;;;;;;;;5023656;28;20322;-52
2022/01/26 21:06:56;;;;;;;5.78;4.32;;;;;;;;;;5029979;28;20430;-53
2022/01/26 21:09:21;;;;;;;6.32;4.53;;;;;;;;;;5025569;28;20129;-53
2022/01/26 21:11:46;;;;;;;6.13;4.63;;;;;;;;;;5022210;28;20028;-51
2022/01/26 21:14:11;;;;;;;6.43;4.77;;;;;;;;;;5028727;28;20032;-51
2022/01/26 21:16:37;;;;;;;5.60;4.00;;;;;;;;;;5040057;28;20028;-51
2022/01/26 21:19:03;;;;;;;5.85;4.07;;;;;;;;;;5034683;28;20033;-52
2022/01/26 21:21:28;;;;;;;5.60;4.05;;;;;;;;;;5026586;28;20025;-52
2022/01/26 21:23:54;;;;;;;5.65;4.07;;;;;;;;;;5043506;28;20037;-52
2022/01/26 21:26:20;;;;;;;6.25;4.47;;;;;;;;;;5044238;28;20069;-51
2022/01/26 21:28:45;;;;;;;6.20;4.75;;;;;;;;;;5044226;28;20060;-53
2022/01/26 21:31:10;;;;;;;6.60;4.57;;;;;;;;;;5044500;28;20025;-51
2022/01/26 21:33:36;;;;;;;6.65;4.68;;;;;;;;;;5026246;28;20099;-52
2022/01/26 21:36:02;;;;;;;6.63;4.55;;;;;;;;;;5022670;28;20024;-51
2022/01/26 21:38:27;;;;;;;5.97;4.50;;;;;;;;;;5022165;28;20037;-53
2022/01/26 21:40:53;;;;;;;12.73;4.80;;;;;;;;;;5022719;28;20554;-53
2022/01/26 21:43:18;;;;;;;5.83;4.53;;;;;;;;;;5039778;28;20151;-52
2022/01/26 21:45:43;;;;;;;6.47;4.25;;;;;;;;;;5043445;28;20272;-51
2022/01/26 21:48:08;;;;;;;5.47;4.13;;;;;;;;;;5043782;28;20012;-52
2022/01/26 21:50:34;;;;;;;5.78;4.28;;;;;;;;;;5044120;28;20271;-52
2022/01/26 21:52:59;;;;;;;7.00;4.75;;;;;;;;;;5031615;28;20040;-53
2022/01/26 21:55:24;;;;;;;5.68;4.10;;;;;;;;;;5023700;28;20053;-53
2022/01/26 21:57:50;;;;;;;5.40;3.93;;;;;;;;;;5024992;28;20037;-52
2022/01/26 22:00:15;;;;;;;7.35;4.80;;;;;;;;;;5036661;28;20014;-51
2022/01/26 22:02:41;;;;;;;6.00;4.50;;;;;;;;;;5034418;28;20037;-51
2022/01/26 22:05:07;;;;;;;6.32;4.35;;;;;;;;;;5043951;28;20210;-53